Time;durP1;ratioP1;P1;durP2;ratioP2;P2;SDS_P1;SDS_P2;PMS_P1;PMS_P2;Temp;Humidity;BMP_temperature;BMP_pressure;BME280_temperature;BME280_humidity;BME280_pressure;Samples;Min_cycle;Max_cycle;Signal;HPM_P1;HPM_P2
2024/01/26 00:00:13;;;;;;;0.60;0.60;;;;;6.90;97000.00;;;;5075363;28;20551;-60
2024/01/26 00:02:41;;;;;;;0.90;0.90;;;;;7.00;97001.00;;;;5072938;28;20225;-60
2024/01/26 00:05:09;;;;;;;0.70;0.70;;;;;6.90;97002.00;;;;5075272;28;20202;-59
2024/01/26 00:07:37;;;;;;;1.10;1.00;;;;;6.80;97003.00;;;;5072804;28;20243;-59
2024/01/26 00:10:05;;;;;;;0.60;0.60;;;;;6.90;96988.00;;;;5073805;28;20594;-59
2024/01/26 00:12:33;;;;;;;0.63;0.63;;;;;6.90;96976.00;;;;5073512;28;20211;-59
2024/01/26 00:15:00;;;;;;;0.50;0.50;;;;;6.90;96986.00;;;;5073469;28;20236;-59
2024/01/26 00:17:29;;;;;;;0.70;0.70;;;;;6.90;96985.00;;;;5078613;28;20180;-61
2024/01/26 00:19:59;;;;;;;0.70;0.70;;;;;6.90;96980.00;;;;5080972;28;20195;-59
2024/01/26 00:22:27;;;;;;;0.77;0.77;;;;;6.90;96976.00;;;;5077150;28;20223;-59
2024/01/26 00:24:54;;;;;;;1.70;1.17;;;;;6.90;96980.00;;;;5076836;28;20198;-59
2024/01/26 00:27:22;;;;;;;0.90;0.90;;;;;6.90;96980.00;;;;5077707;28;20245;-59
2024/01/26 00:29:49;;;;;;;0.77;0.77;;;;;6.90;96976.00;;;;5078130;28;20198;-59
2024/01/26 00:32:20;;;;;;;0.70;0.70;;;;;6.90;96978.00;;;;5077431;28;20214;-59
2024/01/26 00:34:47;;;;;;;1.13;1.13;;;;;6.90;96976.00;;;;5078545;28;20180;-59
2024/01/26 00:37:16;;;;;;;5.37;4.87;;;;;6.90;96984.00;;;;5079273;28;20184;-59
2024/01/26 00:39:43;;;;;;;1.67;1.57;;;;;6.90;96983.00;;;;5078066;28;20599;-59
2024/01/26 00:42:11;;;;;;;0.60;0.60;;;;;7.00;96974.00;;;;5058794;28;20226;-61
2024/01/26 00:44:42;;;;;;;1.40;0.83;;;;;7.10;96977.00;;;;5080468;28;20196;-59
2024/01/26 00:47:10;;;;;;;0.60;0.60;;;;;6.90;96971.00;;;;5079156;28;20203;-59
2024/01/26 00:49:37;;;;;;;0.70;0.70;;;;;7.10;96978.00;;;;5078187;28;20195;-60
2024/01/26 00:52:05;;;;;;;0.60;0.60;;;;;7.10;96984.00;;;;5076880;28;20258;-59
2024/01/26 00:54:34;;;;;;;0.57;0.57;;;;;7.10;96968.00;;;;5058519;28;20199;-59
2024/01/26 00:57:04;;;;;;;0.50;0.50;;;;;7.20;96971.00;;;;5076460;28;20183;-59
2024/01/26 00:59:35;;;;;;;0.50;0.50;;;;;7.30;96957.00;;;;5078752;28;20172;-59
2024/01/26 01:02:02;;;;;;;0.80;0.80;;;;;7.30;96954.00;;;;5077492;28;20725;-58
2024/01/26 01:04:32;;;;;;;0.50;0.50;;;;;7.30;96961.00;;;;5077876;28;20196;-58
2024/01/26 01:06:59;;;;;;;0.80;0.80;;;;;7.40;96963.00;;;;5077693;28;20219;-58
2024/01/26 01:09:27;;;;;;;0.83;0.83;;;;;7.40;96967.00;;;;5078645;28;20218;-58
2024/01/26 01:11:56;;;;;;;0.50;0.50;;;;;7.40;96966.00;;;;5076649;28;20208;-58
2024/01/26 01:14:24;;;;;;;0.50;0.50;;;;;7.40;96968.00;;;;5059540;28;20651;-58
2024/01/26 01:16:51;;;;;;;0.50;0.50;;;;;7.50;96967.00;;;;5077695;28;20203;-58
2024/01/26 01:19:19;;;;;;;0.60;0.60;;;;;7.50;96977.00;;;;5078272;28;20202;-58
2024/01/26 01:21:47;;;;;;;0.60;0.60;;;;;7.40;96970.00;;;;5077425;28;20202;-58
2024/01/26 01:24:14;;;;;;;0.57;0.57;;;;;7.40;96968.00;;;;5078662;28;20198;-59
2024/01/26 01:26:42;;;;;;;0.60;0.60;;;;;7.40;96973.00;;;;5077030;28;20228;-58
2024/01/26 01:29:11;;;;;;;0.50;0.50;;;;;7.40;96975.00;;;;5076333;28;20188;-59
2024/01/26 01:31:38;;;;;;;0.50;0.50;;;;;7.40;96979.00;;;;5077483;28;20197;-60
2024/01/26 01:34:05;;;;;;;0.60;0.60;;;;;7.40;96970.00;;;;5075317;28;20199;-60
2024/01/26 01:36:32;;;;;;;0.60;0.60;;;;;7.40;96963.00;;;;5077079;28;20198;-59
2024/01/26 01:38:59;;;;;;;0.57;0.57;;;;;7.50;96966.00;;;;5076248;28;20183;-59
2024/01/26 01:41:27;;;;;;;1.03;1.03;;;;;7.50;96963.00;;;;5076354;28;20195;-59
2024/01/26 01:43:55;;;;;;;0.60;0.60;;;;;7.50;96961.00;;;;5075624;28;20184;-59
2024/01/26 01:46:24;;;;;;;0.57;0.57;;;;;7.50;96954.00;;;;5074867;28;20195;-60
2024/01/26 01:48:52;;;;;;;0.70;0.70;;;;;7.60;96957.00;;;;5074817;28;20211;-60
2024/01/26 01:51:20;;;;;;;0.60;0.60;;;;;7.50;96967.00;;;;5077101;28;20196;-60
2024/01/26 01:53:49;;;;;;;0.60;0.60;;;;;7.60;96956.00;;;;5074701;28;20266;-59
2024/01/26 01:56:19;;;;;;;0.60;0.60;;;;;7.60;96961.00;;;;5074933;28;20191;-59
2024/01/26 01:58:49;;;;;;;0.50;0.50;;;;;7.60;96952.00;;;;5076769;28;20195;-59
2024/01/26 02:01:16;;;;;;;0.77;0.77;;;;;7.80;96960.00;;;;5076009;28;20192;-60
2024/01/26 02:03:46;;;;;;;0.83;0.83;;;;;7.70;96951.00;;;;5076486;28;20217;-60
2024/01/26 02:06:14;;;;;;;5.40;1.27;;;;;7.70;96950.00;;;;5076101;28;20252;-60
2024/01/26 02:08:43;;;;;;;0.50;0.50;;;;;7.70;96949.00;;;;5075708;28;20223;-60
2024/01/26 02:11:10;;;;;;;0.60;0.60;;;;;7.60;96939.00;;;;5059058;28;20191;-59
2024/01/26 02:13:38;;;;;;;0.60;0.60;;;;;7.70;96950.00;;;;5076179;28;20216;-59
2024/01/26 02:16:06;;;;;;;0.80;0.80;;;;;7.80;96944.00;;;;5076257;28;20222;-59
2024/01/26 02:18:35;;;;;;;0.67;0.67;;;;;7.70;96944.00;;;;5078649;28;20194;-60
2024/01/26 02:21:04;;;;;;;0.70;0.70;;;;;7.80;96948.00;;;;5074904;28;20286;-61
2024/01/26 02:23:33;;;;;;;0.50;0.50;;;;;7.70;96947.00;;;;5075282;28;20215;-60
2024/01/26 02:26:00;;;;;;;0.67;0.67;;;;;7.70;96943.00;;;;5076123;28;20236;-59
2024/01/26 02:28:28;;;;;;;0.57;0.57;;;;;7.70;96949.00;;;;5076613;28;20245;-59
2024/01/26 02:30:55;;;;;;;0.87;0.87;;;;;7.70;96940.00;;;;5075191;28;20199;-61
2024/01/26 02:33:23;;;;;;;0.60;0.60;;;;;7.80;96953.00;;;;5076434;28;20226;-59
2024/01/26 02:35:55;;;;;;;0.60;0.60;;;;;7.80;96949.00;;;;5074783;28;20708;-60
2024/01/26 02:38:25;;;;;;;0.60;0.60;;;;;7.80;96939.00;;;;5074608;28;20281;-60
2024/01/26 02:40:56;;;;;;;0.70;0.70;;;;;7.70;96940.00;;;;5079089;28;20197;-60
2024/01/26 02:43:24;;;;;;;0.50;0.50;;;;;7.70;96954.00;;;;5080136;28;20215;-60
2024/01/26 02:45:51;;;;;;;0.60;0.60;;;;;7.80;96947.00;;;;5060579;28;20290;-60
2024/01/26 02:48:23;;;;;;;0.87;0.87;;;;;7.70;96944.00;;;;5074109;28;20218;-60
2024/01/26 02:50:50;;;;;;;0.50;0.50;;;;;7.70;96941.00;;;;5073970;28;20263;-60
2024/01/26 02:53:18;;;;;;;0.70;0.70;;;;;7.80;96943.00;;;;5075016;28;20211;-60
2024/01/26 02:55:50;;;;;;;0.57;0.57;;;;;7.90;96944.00;;;;5074899;28;20191;-60
2024/01/26 02:58:19;;;;;;;0.60;0.60;;;;;8.00;96949.00;;;;5074172;28;20176;-61
2024/01/26 03:00:46;;;;;;;0.70;0.70;;;;;7.80;96944.00;;;;5075426;28;20717;-60
2024/01/26 03:03:14;;;;;;;0.47;0.47;;;;;7.80;96936.00;;;;5055722;28;20223;-60
2024/01/26 03:05:41;;;;;;;0.80;0.80;;;;;7.80;96930.00;;;;5073620;28;20202;-60
2024/01/26 03:08:09;;;;;;;0.57;0.57;;;;;7.80;96933.00;;;;5074463;28;20227;-60
2024/01/26 03:10:36;;;;;;;0.60;0.60;;;;;7.60;96933.00;;;;5075237;28;20191;-60
2024/01/26 03:13:04;;;;;;;0.57;0.57;;;;;7.90;96939.00;;;;5075237;28;20681;-60
2024/01/26 03:15:33;;;;;;;0.57;0.57;;;;;7.70;96934.00;;;;5074606;28;20620;-60
2024/01/26 03:18:05;;;;;;;0.60;0.60;;;;;7.60;96936.00;;;;5060562;28;20191;-60
2024/01/26 03:20:33;;;;;;;0.50;0.50;;;;;7.70;96934.00;;;;5075549;28;20529;-59
2024/01/26 03:23:02;;;;;;;0.50;0.50;;;;;7.80;96937.00;;;;5073534;28;20572;-59
2024/01/26 03:25:29;;;;;;;0.50;0.50;;;;;7.80;96944.00;;;;5074858;28;20191;-60
2024/01/26 03:27:56;;;;;;;0.63;0.63;;;;;7.80;96948.00;;;;5073845;28;20256;-60
2024/01/26 03:30:24;;;;;;;0.70;0.70;;;;;7.80;96948.00;;;;5074369;28;20187;-60
2024/01/26 03:32:53;;;;;;;0.60;0.60;;;;;7.70;96945.00;;;;5073640;28;20230;-60
2024/01/26 03:35:20;;;;;;;0.50;0.50;;;;;7.70;96953.00;;;;5073792;28;20194;-60
2024/01/26 03:37:47;;;;;;;0.50;0.50;;;;;7.60;96954.00;;;;5074438;28;20187;-60
2024/01/26 03:40:15;;;;;;;0.70;0.70;;;;;7.70;96951.00;;;;5074169;28;20183;-60
2024/01/26 03:42:43;;;;;;;2.20;0.73;;;;;7.80;96954.00;;;;5073895;28;20222;-60
2024/01/26 03:45:12;;;;;;;0.70;0.70;;;;;7.90;96949.00;;;;5073734;28;20199;-60
2024/01/26 03:47:39;;;;;;;0.50;0.50;;;;;7.90;96945.00;;;;5073731;28;20213;-60
2024/01/26 03:50:09;;;;;;;0.70;0.70;;;;;7.80;96951.00;;;;5073789;28;20188;-60
2024/01/26 03:52:37;;;;;;;0.53;0.53;;;;;7.90;96947.00;;;;5076144;28;20211;-60
2024/01/26 03:55:06;;;;;;;1.63;1.00;;;;;7.70;96943.00;;;;5076904;28;20274;-59
2024/01/26 03:57:35;;;;;;;0.50;0.50;;;;;7.70;96945.00;;;;5077108;28;20191;-59
2024/01/26 04:00:03;;;;;;;0.60;0.60;;;;;7.70;96948.00;;;;5078788;28;20195;-59
2024/01/26 04:02:31;;;;;;;0.80;0.80;;;;;7.90;96945.00;;;;5076939;28;20215;-59
2024/01/26 04:05:00;;;;;;;0.50;0.50;;;;;7.80;96941.00;;;;5077059;28;20663;-59
2024/01/26 04:07:29;;;;;;;0.50;0.50;;;;;7.90;96939.00;;;;5077698;28;20661;-60
2024/01/26 04:09:56;;;;;;;0.50;0.50;;;;;7.80;96933.00;;;;5077980;28;20194;-60
2024/01/26 04:12:24;;;;;;;0.53;0.53;;;;;7.90;96935.00;;;;5077438;28;20215;-60
2024/01/26 04:14:52;;;;;;;1.00;1.00;;;;;8.00;96935.00;;;;5076733;28;20202;-60
2024/01/26 04:17:19;;;;;;;1.17;1.17;;;;;8.00;96938.00;;;;5077077;28;20182;-60
2024/01/26 04:19:47;;;;;;;0.60;0.60;;;;;8.00;96942.00;;;;5078483;28;20655;-59
2024/01/26 04:22:14;;;;;;;0.60;0.60;;;;;7.90;96937.00;;;;5077103;28;20212;-59
2024/01/26 04:24:43;;;;;;;0.60;0.60;;;;;7.90;96933.00;;;;5076465;28;20261;-59
2024/01/26 04:27:11;;;;;;;5.57;0.67;;;;;7.80;96939.00;;;;5076881;28;20195;-59
2024/01/26 04:29:38;;;;;;;0.80;0.80;;;;;7.60;96941.00;;;;5076722;28;20634;-59
2024/01/26 04:32:07;;;;;;;0.87;0.87;;;;;7.40;96951.00;;;;5076464;28;20207;-59
2024/01/26 04:34:37;;;;;;;0.70;0.70;;;;;7.40;96941.00;;;;5076550;28;20188;-59
2024/01/26 04:37:09;;;;;;;0.50;0.50;;;;;7.20;96935.00;;;;5078188;28;20706;-60
2024/01/26 04:39:36;;;;;;;0.70;0.70;;;;;7.30;96937.00;;;;5077081;28;20180;-59
2024/01/26 04:42:08;;;;;;;1.00;1.00;;;;;7.30;96938.00;;;;5077278;28;20211;-59
2024/01/26 04:44:36;;;;;;;0.70;0.70;;;;;7.30;96928.00;;;;5078107;28;20271;-59
2024/01/26 04:47:03;;;;;;;0.60;0.60;;;;;7.60;96937.00;;;;5076660;28;20686;-60
2024/01/26 04:49:31;;;;;;;0.77;0.77;;;;;7.60;96945.00;;;;5077278;28;20203;-60
2024/01/26 04:52:01;;;;;;;0.60;0.60;;;;;7.70;96946.00;;;;5076412;28;20551;-60
2024/01/26 04:54:31;;;;;;;0.70;0.70;;;;;7.80;96952.00;;;;5076319;28;20559;-59
2024/01/26 04:57:00;;;;;;;0.50;0.50;;;;;8.00;96942.00;;;;5079274;28;20229;-59
2024/01/26 04:59:29;;;;;;;0.70;0.70;;;;;7.90;96956.00;;;;5079212;28;20191;-59
2024/01/26 05:01:56;;;;;;;0.60;0.60;;;;;7.90;96950.00;;;;5080305;28;20215;-59
2024/01/26 05:04:24;;;;;;;0.60;0.60;;;;;8.00;96974.00;;;;5078459;28;20207;-59
2024/01/26 05:06:51;;;;;;;0.80;0.80;;;;;7.80;96949.00;;;;5079370;28;20191;-60
2024/01/26 05:09:18;;;;;;;0.50;0.50;;;;;7.80;96948.00;;;;5079844;28;20221;-60
2024/01/26 05:11:49;;;;;;;0.70;0.70;;;;;7.80;96938.00;;;;5078172;28;20640;-59
2024/01/26 05:14:17;;;;;;;0.63;0.63;;;;;7.80;96932.00;;;;5078143;28;20212;-60
2024/01/26 05:16:46;;;;;;;0.60;0.60;;;;;7.80;96934.00;;;;5075813;28;20201;-59
2024/01/26 05:19:14;;;;;;;0.70;0.70;;;;;7.90;96934.00;;;;5076381;28;20214;-59
2024/01/26 05:21:41;;;;;;;1.17;1.07;;;;;7.70;96941.00;;;;5075501;28;20559;-59
2024/01/26 05:24:09;;;;;;;0.60;0.60;;;;;7.60;96935.00;;;;5077985;28;20191;-59
2024/01/26 05:26:39;;;;;;;0.60;0.60;;;;;7.60;96942.00;;;;5078332;28;20198;-60
2024/01/26 05:29:08;;;;;;;0.60;0.60;;;;;7.60;96937.00;;;;5076598;28;20645;-59
2024/01/26 05:31:35;;;;;;;0.70;0.70;;;;;7.50;96934.00;;;;5057232;28;20198;-59
2024/01/26 05:34:04;;;;;;;0.90;0.90;;;;;7.30;96942.00;;;;5077548;28;20191;-60
2024/01/26 05:36:35;;;;;;;1.77;1.67;;;;;7.50;96944.00;;;;5078959;28;20555;-60
2024/01/26 05:39:02;;;;;;;0.87;0.87;;;;;7.50;96932.00;;;;5076080;28;20168;-60
2024/01/26 05:41:30;;;;;;;1.10;0.80;;;;;7.60;96934.00;;;;5075648;28;20195;-60
2024/01/26 05:43:57;;;;;;;0.60;0.60;;;;;7.60;96955.00;;;;5075432;28;20192;-60
2024/01/26 05:46:24;;;;;;;0.70;0.70;;;;;7.60;96939.00;;;;5076189;28;20199;-59
2024/01/26 05:48:56;;;;;;;0.70;0.70;;;;;7.70;96946.00;;;;5077977;28;20210;-59
2024/01/26 05:51:25;;;;;;;0.60;0.60;;;;;7.70;96952.00;;;;5079222;28;20184;-59
2024/01/26 05:53:53;;;;;;;0.80;0.80;;;;;7.60;96939.00;;;;5076738;28;20192;-59
2024/01/26 05:56:21;;;;;;;0.70;0.70;;;;;7.60;96940.00;;;;5075195;28;20191;-59
2024/01/26 05:58:49;;;;;;;0.50;0.50;;;;;7.80;96940.00;;;;5075353;28;20187;-58
2024/01/26 06:01:18;;;;;;;0.83;0.63;;;;;7.80;96959.00;;;;5076104;28;20187;-58
2024/01/26 06:03:46;;;;;;;0.50;0.50;;;;;7.90;96957.00;;;;5077320;28;20258;-58
2024/01/26 06:06:14;;;;;;;0.87;0.87;;;;;8.00;96947.00;;;;5076350;28;20198;-59
2024/01/26 06:08:43;;;;;;;1.20;1.10;;;;;7.90;96955.00;;;;5075849;28;20576;-58
2024/01/26 06:11:11;;;;;;;0.53;0.53;;;;;8.00;96936.00;;;;5056748;28;20282;-59
2024/01/26 06:13:40;;;;;;;0.60;0.60;;;;;8.10;96957.00;;;;5075546;28;20214;-59
2024/01/26 06:16:07;;;;;;;0.60;0.60;;;;;8.00;96940.00;;;;5075771;28;20202;-59
2024/01/26 06:18:35;;;;;;;0.80;0.80;;;;;8.00;96942.00;;;;5076785;28;20199;-60
2024/01/26 06:21:02;;;;;;;0.60;0.60;;;;;8.00;96942.00;;;;5076214;28;20196;-59
2024/01/26 06:23:30;;;;;;;0.50;0.50;;;;;8.00;96946.00;;;;5057782;28;20211;-59
2024/01/26 06:25:59;;;;;;;0.57;0.57;;;;;8.10;96947.00;;;;5056205;28;20202;-60
2024/01/26 06:28:26;;;;;;;0.90;0.90;;;;;8.10;96946.00;;;;5075530;28;20192;-59
2024/01/26 06:30:54;;;;;;;0.50;0.50;;;;;8.00;96941.00;;;;5075357;28;20202;-59
2024/01/26 06:33:21;;;;;;;0.60;0.60;;;;;7.90;96947.00;;;;5075723;28;20662;-60
2024/01/26 06:35:49;;;;;;;0.60;0.60;;;;;7.90;96936.00;;;;5057903;28;20206;-59
2024/01/26 06:38:17;;;;;;;0.50;0.50;;;;;8.10;96935.00;;;;5057892;28;20221;-61
2024/01/26 06:40:46;;;;;;;1.03;1.03;;;;;8.00;96942.00;;;;5075864;28;20652;-59
2024/01/26 06:43:16;;;;;;;0.90;0.90;;;;;8.10;96939.00;;;;5074728;28;20235;-60
2024/01/26 06:45:44;;;;;;;0.97;0.97;;;;;8.10;96941.00;;;;5076255;28;20195;-59
2024/01/26 06:48:12;;;;;;;0.57;0.57;;;;;8.00;96933.00;;;;5075416;28;20241;-59
2024/01/26 06:50:40;;;;;;;2.53;1.00;;;;;7.80;96941.00;;;;5074951;28;20573;-60
2024/01/26 06:53:09;;;;;;;0.60;0.60;;;;;8.10;96945.00;;;;5075469;28;20642;-60
2024/01/26 06:55:36;;;;;;;0.60;0.60;;;;;8.00;96954.00;;;;5076001;28;20191;-58
2024/01/26 06:58:04;;;;;;;0.50;0.50;;;;;8.10;96953.00;;;;5074884;28;20183;-59
2024/01/26 07:00:34;;;;;;;2.83;1.63;;;;;8.00;96938.00;;;;5075346;28;20627;-58
2024/01/26 07:03:01;;;;;;;0.53;0.53;;;;;7.90;96950.00;;;;5074336;28;20211;-59
2024/01/26 07:05:29;;;;;;;0.50;0.50;;;;;8.10;96935.00;;;;5075198;28;20197;-59
2024/01/26 07:08:00;;;;;;;0.93;0.70;;;;;7.90;96946.00;;;;5076314;28;20195;-59
2024/01/26 07:10:27;;;;;;;0.90;0.90;;;;;8.00;96927.00;;;;5074502;28;20217;-58
2024/01/26 07:12:55;;;;;;;0.60;0.60;;;;;8.00;96940.00;;;;5074575;28;20226;-59
2024/01/26 07:15:22;;;;;;;0.60;0.60;;;;;8.10;96934.00;;;;5073830;28;20211;-59
2024/01/26 07:17:51;;;;;;;0.70;0.70;;;;;7.90;96940.00;;;;5074140;28;20557;-60
2024/01/26 07:20:20;;;;;;;0.73;0.73;;;;;7.80;96936.00;;;;5070853;28;20235;-60
2024/01/26 07:22:47;;;;;;;0.50;0.50;;;;;7.80;96933.00;;;;5071935;28;20269;-62
2024/01/26 07:25:19;;;;;;;0.70;0.70;;;;;7.90;96924.00;;;;5071467;28;20191;-63
2024/01/26 07:27:46;;;;;;;1.73;1.37;;;;;7.90;96919.00;;;;5071246;28;20195;-63
2024/01/26 07:30:15;;;;;;;0.60;0.60;;;;;7.90;96926.00;;;;5072906;28;20221;-63
2024/01/26 07:32:43;;;;;;;0.60;0.60;;;;;8.00;96913.00;;;;5072753;28;20211;-60
2024/01/26 07:35:12;;;;;;;0.60;0.60;;;;;7.90;96925.00;;;;5053741;28;20199;-59
2024/01/26 07:37:42;;;;;;;0.70;0.70;;;;;8.00;96924.00;;;;5054591;28;20801;-57
2024/01/26 07:40:11;;;;;;;0.70;0.70;;;;;7.90;96934.00;;;;5075763;28;20734;-60
2024/01/26 07:42:41;;;;;;;0.60;0.60;;;;;8.00;96911.00;;;;5069959;28;20303;-61
2024/01/26 07:45:10;;;;;;;1.00;1.00;;;;;8.10;96923.00;;;;5071844;28;20206;-60
2024/01/26 07:47:37;;;;;;;0.90;0.90;;;;;8.00;96941.00;;;;5071504;28;20773;-59
2024/01/26 07:50:05;;;;;;;0.60;0.60;;;;;8.30;96933.00;;;;5071860;28;20215;-59
2024/01/26 07:52:34;;;;;;;0.60;0.60;;;;;8.30;96923.00;;;;5071350;28;20219;-59
2024/01/26 07:55:02;;;;;;;0.80;0.80;;;;;8.30;96916.00;;;;5072512;28;20192;-59
2024/01/26 07:57:29;;;;;;;0.60;0.60;;;;;8.10;96911.00;;;;5070685;28;20198;-59
2024/01/26 07:59:57;;;;;;;0.90;0.90;;;;;8.30;96916.00;;;;5073271;28;20191;-59
2024/01/26 08:02:25;;;;;;;0.83;0.83;;;;;8.40;96919.00;;;;5070750;28;20221;-60
2024/01/26 08:04:53;;;;;;;0.70;0.70;;;;;8.50;96915.00;;;;5071782;28;20199;-59
2024/01/26 08:07:21;;;;;;;0.60;0.60;;;;;8.40;96913.00;;;;5070888;28;20196;-59
2024/01/26 08:09:50;;;;;;;1.43;1.33;;;;;8.40;96911.00;;;;5053315;28;20246;-59
2024/01/26 08:12:18;;;;;;;1.13;1.13;;;;;8.60;96915.00;;;;5073049;28;20211;-59
2024/01/26 08:14:46;;;;;;;0.60;0.60;;;;;8.50;96921.00;;;;5070408;28;20238;-59
2024/01/26 08:17:14;;;;;;;0.57;0.57;;;;;8.50;96918.00;;;;5054150;28;20663;-60
2024/01/26 08:19:42;;;;;;;0.67;0.67;;;;;8.50;96901.00;;;;5071044;28;20640;-59
2024/01/26 08:22:10;;;;;;;0.80;0.80;;;;;8.80;96906.00;;;;5072176;28;20766;-60
2024/01/26 08:24:43;;;;;;;0.60;0.60;;;;;8.90;96910.00;;;;5072217;28;20286;-59
2024/01/26 08:27:12;;;;;;;0.73;0.73;;;;;8.90;96913.00;;;;5071706;28;20504;-59
2024/01/26 08:29:44;;;;;;;0.60;0.60;;;;;8.70;96904.00;;;;5070546;28;20561;-60
2024/01/26 08:32:11;;;;;;;0.50;0.50;;;;;8.90;96905.00;;;;5071325;28;20298;-59
2024/01/26 08:34:42;;;;;;;0.73;0.73;;;;;8.90;96906.00;;;;5071846;28;20670;-60
2024/01/26 08:37:10;;;;;;;0.70;0.70;;;;;9.10;96900.00;;;;5072586;28;20198;-60
2024/01/26 08:39:37;;;;;;;0.60;0.60;;;;;9.00;96902.00;;;;5055420;28;20313;-60
2024/01/26 08:42:05;;;;;;;0.53;0.53;;;;;9.00;96887.00;;;;5074520;28;20244;-60
2024/01/26 08:44:34;;;;;;;0.53;0.53;;;;;9.00;96890.00;;;;5070408;28;20210;-58
2024/01/26 08:47:04;;;;;;;0.70;0.70;;;;;8.90;96889.00;;;;5056574;28;20199;-59
2024/01/26 08:49:31;;;;;;;0.60;0.60;;;;;9.10;96873.00;;;;5074731;28;20250;-58
2024/01/26 08:52:01;;;;;;;0.80;0.80;;;;;9.10;96867.00;;;;5076271;28;20223;-58
2024/01/26 08:54:28;;;;;;;0.70;0.70;;;;;9.30;96868.00;;;;5074446;28;20195;-59
2024/01/26 08:56:56;;;;;;;0.70;0.70;;;;;9.20;96855.00;;;;5074965;28;20560;-60
2024/01/26 08:59:27;;;;;;;0.60;0.60;;;;;9.10;96849.00;;;;5073923;28;20643;-61
2024/01/26 09:01:57;;;;;;;0.70;0.70;;;;;9.00;96850.00;;;;5056368;28;20280;-60
2024/01/26 09:04:27;;;;;;;0.60;0.60;;;;;9.10;96839.00;;;;5073598;28;20595;-60
2024/01/26 09:07:01;;;;;;;0.60;0.60;;;;;9.00;96846.00;;;;5073937;28;20234;-61
2024/01/26 09:09:34;;;;;;;0.70;0.70;;;;;9.30;96856.00;;;;5072355;28;20245;-61
2024/01/26 09:12:02;;;;;;;0.60;0.60;;;;;9.10;96855.00;;;;5073960;28;20225;-60
2024/01/26 09:14:30;;;;;;;0.77;0.77;;;;;8.90;96855.00;;;;5073644;28;20226;-59
2024/01/26 09:17:00;;;;;;;0.80;0.80;;;;;9.00;96864.00;;;;5073825;28;20230;-58
2024/01/26 09:19:28;;;;;;;0.73;0.73;;;;;8.80;96866.00;;;;5075457;28;20203;-58
2024/01/26 09:21:55;;;;;;;0.50;0.50;;;;;9.00;96857.00;;;;5055799;28;20218;-58
2024/01/26 09:24:23;;;;;;;0.60;0.60;;;;;9.10;96850.00;;;;5074105;28;20271;-59
2024/01/26 09:26:52;;;;;;;0.50;0.50;;;;;8.90;96854.00;;;;5056462;28;20619;-59
2024/01/26 09:29:20;;;;;;;0.60;0.60;;;;;9.20;96845.00;;;;5073397;28;20200;-58
2024/01/26 09:31:48;;;;;;;0.60;0.60;;;;;9.20;96859.00;;;;5073501;28;20254;-58
2024/01/26 09:34:17;;;;;;;0.60;0.60;;;;;9.30;96852.00;;;;5073769;28;20222;-58
2024/01/26 09:36:48;;;;;;;0.70;0.70;;;;;9.20;96855.00;;;;5075995;28;20199;-59
2024/01/26 09:39:15;;;;;;;0.60;0.60;;;;;9.10;96839.00;;;;5068035;28;20218;-58
2024/01/26 09:41:43;;;;;;;0.50;0.50;;;;;9.30;96844.00;;;;5073486;28;20569;-58
2024/01/26 09:44:10;;;;;;;0.63;0.63;;;;;9.30;96854.00;;;;5073110;28;20192;-58
2024/01/26 09:46:38;;;;;;;0.60;0.60;;;;;9.20;96849.00;;;;5054956;28;20214;-58
2024/01/26 09:49:09;;;;;;;0.70;0.70;;;;;9.20;96856.00;;;;5072079;28;20201;-58
2024/01/26 09:51:39;;;;;;;0.63;0.63;;;;;9.20;96859.00;;;;5055475;28;20310;-59
2024/01/26 09:54:08;;;;;;;0.50;0.50;;;;;9.20;96857.00;;;;5056295;28;20677;-58
2024/01/26 09:56:41;;;;;;;0.70;0.70;;;;;9.20;96859.00;;;;5057387;28;20253;-59
2024/01/26 09:59:20;;;;;;;1.27;0.90;;;;;9.30;96852.00;;;;5060355;28;20577;-59
2024/01/26 10:01:49;;;;;;;0.70;0.70;;;;;9.30;96864.00;;;;5075236;28;20215;-59
2024/01/26 10:04:17;;;;;;;0.63;0.63;;;;;9.20;96867.00;;;;5073889;28;20202;-61
2024/01/26 10:06:46;;;;;;;0.73;0.73;;;;;9.30;96864.00;;;;5077428;28;20191;-58
2024/01/26 10:09:14;;;;;;;0.80;0.80;;;;;9.40;96857.00;;;;5075181;28;20195;-58
2024/01/26 10:11:41;;;;;;;0.70;0.70;;;;;9.50;96855.00;;;;5075583;28;20680;-58
2024/01/26 10:14:09;;;;;;;1.27;1.17;;;;;9.60;96853.00;;;;5077010;28;20268;-59
2024/01/26 10:16:36;;;;;;;0.60;0.60;;;;;9.50;96854.00;;;;5073722;28;20206;-58
2024/01/26 10:19:04;;;;;;;0.60;0.60;;;;;9.30;96848.00;;;;5074673;28;20227;-58
2024/01/26 10:21:32;;;;;;;0.70;0.70;;;;;9.30;96852.00;;;;5073946;28;20188;-58
2024/01/26 10:24:01;;;;;;;0.70;0.70;;;;;9.40;96848.00;;;;5073540;28;20223;-58
2024/01/26 10:26:29;;;;;;;0.90;0.90;;;;;9.40;96848.00;;;;5070911;28;20206;-59
2024/01/26 10:28:57;;;;;;;0.53;0.53;;;;;9.60;96844.00;;;;5074253;28;20217;-59
2024/01/26 10:31:26;;;;;;;0.50;0.50;;;;;9.50;96837.00;;;;5070593;28;20706;-59
2024/01/26 10:33:59;;;;;;;0.50;0.50;;;;;9.60;96825.00;;;;5073575;28;20200;-59
2024/01/26 10:36:30;;;;;;;4.13;0.93;;;;;9.80;96828.00;;;;5073231;28;20222;-59
2024/01/26 10:39:01;;;;;;;0.50;0.50;;;;;9.50;96827.00;;;;5074210;28;20206;-58
2024/01/26 10:41:31;;;;;;;0.63;0.63;;;;;9.50;96825.00;;;;5074362;28;20286;-59
2024/01/26 10:43:59;;;;;;;0.70;0.70;;;;;9.40;96833.00;;;;5056281;28;20682;-59
2024/01/26 10:46:27;;;;;;;0.60;0.60;;;;;9.60;96830.00;;;;5071341;28;20252;-58
2024/01/26 10:48:57;;;;;;;0.70;0.70;;;;;9.40;96825.00;;;;5072899;28;20211;-59
2024/01/26 10:51:26;;;;;;;0.63;0.63;;;;;9.60;96819.00;;;;5072739;28;20295;-58
2024/01/26 10:53:55;;;;;;;0.60;0.60;;;;;9.60;96808.00;;;;5073071;28;20199;-59
2024/01/26 10:56:24;;;;;;;3.10;0.90;;;;;9.90;96807.00;;;;5072670;28;20191;-58
2024/01/26 10:58:52;;;;;;;0.60;0.60;;;;;9.90;96807.00;;;;5072267;28;20274;-58
2024/01/26 11:01:20;;;;;;;1.43;1.20;;;;;9.90;96803.00;;;;5071860;28;20659;-60
2024/01/26 11:03:47;;;;;;;1.97;0.73;;;;;9.90;96810.00;;;;5072505;28;20215;-59
2024/01/26 11:06:18;;;;;;;0.80;0.80;;;;;9.60;96807.00;;;;5073280;28;20659;-59
2024/01/26 11:08:47;;;;;;;0.60;0.60;;;;;9.70;96815.00;;;;5055316;28;20222;-59
2024/01/26 11:11:16;;;;;;;0.70;0.70;;;;;9.80;96806.00;;;;5071312;28;20203;-59
2024/01/26 11:13:52;;;;;;;0.80;0.80;;;;;9.80;96809.00;;;;5074148;28;20219;-58
2024/01/26 11:16:23;;;;;;;0.80;0.80;;;;;10.10;96796.00;;;;5071228;28;20268;-59
2024/01/26 11:18:57;;;;;;;0.60;0.60;;;;;9.90;96803.00;;;;5054498;28;20551;-59
2024/01/26 11:21:36;;;;;;;0.50;0.50;;;;;10.00;96799.00;;;;5073122;28;20187;-61
2024/01/26 11:24:16;;;;;;;0.70;0.70;;;;;10.30;96776.00;;;;5073509;28;20183;-59
2024/01/26 11:26:55;;;;;;;0.93;0.93;;;;;10.20;96779.00;;;;5068901;28;20210;-58
2024/01/26 11:29:31;;;;;;;0.60;0.60;;;;;10.20;96787.00;;;;5072710;28;20187;-60
2024/01/26 11:31:58;;;;;;;0.70;0.70;;;;;10.30;96785.00;;;;5073131;28;20215;-59
2024/01/26 11:34:27;;;;;;;0.60;0.60;;;;;10.10;96779.00;;;;5072098;28;20195;-57
2024/01/26 11:37:09;;;;;;;0.60;0.60;;;;;10.00;96772.00;;;;5074020;28;20191;-58
2024/01/26 11:39:37;;;;;;;0.60;0.60;;;;;10.00;96775.00;;;;5072709;28;20669;-59
2024/01/26 11:42:09;;;;;;;0.60;0.60;;;;;9.90;96767.00;;;;5073545;28;20214;-60
2024/01/26 11:44:41;;;;;;;0.50;0.50;;;;;9.90;96772.00;;;;5071662;28;20191;-59
2024/01/26 11:47:16;;;;;;;0.60;0.60;;;;;9.80;96766.00;;;;5074836;28;20679;-62
2024/01/26 11:49:43;;;;;;;0.50;0.50;;;;;9.90;96773.00;;;;5071086;28;20194;-59
2024/01/26 11:52:11;;;;;;;0.70;0.70;;;;;9.80;96779.00;;;;5071632;28;20302;-60
2024/01/26 11:54:43;;;;;;;0.60;0.60;;;;;9.90;96815.00;;;;5072499;28;20203;-60
2024/01/26 11:57:11;;;;;;;0.60;0.60;;;;;9.70;96764.00;;;;5072251;28;20184;-60
2024/01/26 11:59:43;;;;;;;0.60;0.60;;;;;9.80;96755.00;;;;5071733;28;20274;-60
2024/01/26 12:02:11;;;;;;;0.60;0.60;;;;;9.80;96756.00;;;;5071795;28;20280;-60
2024/01/26 12:04:43;;;;;;;0.60;0.60;;;;;9.70;96768.00;;;;5072958;28;20206;-59
2024/01/26 12:07:11;;;;;;;0.50;0.50;;;;;10.00;96758.00;;;;5074154;28;20188;-58
2024/01/26 12:09:38;;;;;;;0.60;0.60;;;;;10.10;96758.00;;;;5070603;28;20203;-59
2024/01/26 12:12:08;;;;;;;0.60;0.60;;;;;10.20;96758.00;;;;5068891;28;20219;-59
2024/01/26 12:14:36;;;;;;;0.60;0.60;;;;;10.10;96752.00;;;;5072545;28;20750;-59
2024/01/26 12:17:06;;;;;;;0.60;0.60;;;;;10.00;96754.00;;;;5075403;28;20188;-59
2024/01/26 12:19:33;;;;;;;0.60;0.60;;;;;10.30;96767.00;;;;5075628;28;20195;-59
2024/01/26 12:22:01;;;;;;;0.57;0.57;;;;;10.10;96782.00;;;;5075407;28;20296;-59
2024/01/26 12:24:28;;;;;;;0.60;0.60;;;;;10.00;96778.00;;;;5076744;28;20230;-58
2024/01/26 12:26:56;;;;;;;0.63;0.63;;;;;9.90;96788.00;;;;5075171;28;20593;-59
2024/01/26 12:29:27;;;;;;;0.40;0.40;;;;;10.00;96805.00;;;;5075207;28;20192;-59
2024/01/26 12:32:04;;;;;;;0.60;0.60;;;;;9.80;96781.00;;;;5075806;28;20273;-60